NFTL/HPA METAR and TAF weather

Enter ICAO airport designator
Station Type Date Time Source
NFTL METAR 2023/01/30 06:00 UTC NOAA

NFTL 300600Z VRB02KT 9999 FEW016TCU BKN290 28/24 Q1008


Station Type Date Time Source
NFTL Decoded METAR 2023/01/30 06:00 UTC NOAA

Haapai, Tonga (NFTL) 19-48S 174-21W 3M
Jan 30, 2023 - 01:00 AM EST / 2023.01.30 0600 UTC
Wind: Variable at 2 MPH (2 KT):0
Visibility: greater than 7 mile(s):0
Sky conditions: mostly cloudy
Weather: Towering cumulus clouds observed
Temperature: 82 F (28 C)
Dew Point: 75 F (24 C)
Relative Humidity: 78%
Pressure (altimeter): 29.77 in. Hg (1008 hPa)
ob: NFTL 300600Z VRB02KT 9999 FEW016TCU BKN290 28/24 Q1008
cycle: 6

Station Type Date Time Source
NFTL TAF 2018/02/21 17:19 UTC NOAA

TAF NFTL 211605Z 2117/2208 12010KT 9999 SCT018

Example: see airport list